createdAt,value
2022-11-14T00:04:07.016Z,16.68
2022-11-14T00:09:10.222Z,17.10
2022-11-14T00:14:13.427Z,15.09
2022-11-14T00:19:16.575Z,13.84
2022-11-14T00:24:20.962Z,13.07
2022-11-14T00:29:24.070Z,13.82
2022-11-14T00:34:27.379Z,16.79
2022-11-14T00:39:31.138Z,17.07
2022-11-14T00:44:36.568Z,15.07
2022-11-14T00:49:39.668Z,13.81
2022-11-14T00:54:43.285Z,12.98
2022-11-14T00:59:48.957Z,12.39
2022-11-14T01:04:53.186Z,13.30
2022-11-14T01:09:56.421Z,16.37
2022-11-14T01:14:59.601Z,17.75
2022-11-14T01:20:02.720Z,16.62
2022-11-14T01:25:06.842Z,14.70
2022-11-14T01:30:10.972Z,13.55
2022-11-14T01:35:14.359Z,12.75
2022-11-14T01:40:17.712Z,12.20
2022-11-14T01:45:52.623Z,13.17
2022-11-14T01:51:08.449Z,16.73
2022-11-14T01:56:16.892Z,16.99
2022-11-14T02:01:20.816Z,14.76
2022-11-14T02:06:29.955Z,13.27
2022-11-14T02:11:38.139Z,12.34
2022-11-14T02:16:55.467Z,13.41
2022-11-14T02:22:06.628Z,16.54
2022-11-14T02:27:11.818Z,16.71
2022-11-14T02:32:15.135Z,14.64
2022-11-14T02:37:18.187Z,13.33
2022-11-14T02:42:21.334Z,12.43
2022-11-14T02:47:27.982Z,12.06
2022-11-14T02:52:31.436Z,15.12
2022-11-14T02:57:34.709Z,17.24
2022-11-14T03:02:37.849Z,16.39
2022-11-14T03:07:41.127Z,14.37
2022-11-14T03:12:44.247Z,13.16
2022-11-14T03:17:47.948Z,12.27
2022-11-14T03:22:51.058Z,11.87
2022-11-14T03:27:54.384Z,14.66
2022-11-14T03:32:58.292Z,15.64
2022-11-14T03:38:01.447Z,13.66
2022-11-14T03:43:04.611Z,12.44
2022-11-14T03:48:08.843Z,11.71
2022-11-14T03:53:12.045Z,11.24
2022-11-14T03:58:15.152Z,11.91
2022-11-14T04:03:18.268Z,14.88
2022-11-14T04:08:21.467Z,15.35
2022-11-14T04:13:24.575Z,13.46
2022-11-14T04:18:28.609Z,12.25
2022-11-14T04:23:32.015Z,11.52
2022-11-14T04:28:35.230Z,12.54
2022-11-14T04:33:38.433Z,14.78
2022-11-14T04:38:41.681Z,15.04
2022-11-14T04:43:49.505Z,13.20
2022-11-14T04:48:53.998Z,12.00
2022-11-14T04:53:57.120Z,11.41
2022-11-14T04:59:00.420Z,13.40
2022-11-14T05:04:03.982Z,16.01
2022-11-14T05:09:07.283Z,16.11
2022-11-14T05:14:10.457Z,13.95
2022-11-14T05:19:13.554Z,12.56
2022-11-14T05:24:16.774Z,11.69
2022-11-14T05:29:20.121Z,12.23
2022-11-14T05:34:23.494Z,14.63
2022-11-14T05:39:26.704Z,14.94
2022-11-14T05:44:29.804Z,13.14
2022-11-14T05:49:33.057Z,12.01
2022-11-14T05:54:36.226Z,11.30
2022-11-14T05:59:39.248Z,11.89
2022-11-14T06:04:42.332Z,14.39
2022-11-14T06:09:45.564Z,14.83
2022-11-14T06:14:48.657Z,13.13
2022-11-14T06:19:51.779Z,11.93
2022-11-14T06:24:54.968Z,12.41
2022-11-14T06:29:58.086Z,14.99
2022-11-14T06:35:03.227Z,15.33
2022-11-14T06:40:07.995Z,13.32
2022-11-14T06:45:11.485Z,12.03
2022-11-14T06:50:14.810Z,12.14
2022-11-14T06:55:23.913Z,14.33
2022-11-14T07:00:28.398Z,13.85
2022-11-14T07:05:31.481Z,12.31
2022-11-14T07:10:35.319Z,11.52
2022-11-14T07:15:38.723Z,13.16
2022-11-14T07:20:41.726Z,14.14
2022-11-14T07:25:45.043Z,12.55
2022-11-14T07:30:48.249Z,12.20
2022-11-14T07:35:52.281Z,14.26
2022-11-14T07:41:05.658Z,14.63
2022-11-14T07:46:16.303Z,12.98
2022-11-14T07:51:21.256Z,12.02
2022-11-14T07:56:26.207Z,11.89
2022-11-14T08:01:29.364Z,14.08
2022-11-14T08:06:32.627Z,14.68
2022-11-14T08:11:48.017Z,13.07
2022-11-14T08:16:51.523Z,12.11
2022-11-14T08:21:54.631Z,12.74
2022-11-14T08:26:57.950Z,14.91
2022-11-14T08:32:01.167Z,14.00
2022-11-14T08:37:04.487Z,12.79
2022-11-14T08:42:07.980Z,13.47
2022-11-14T08:47:11.098Z,14.50
2022-11-14T08:52:16.925Z,13.14
2022-11-14T08:57:20.475Z,12.66
2022-11-14T09:02:23.574Z,14.56
2022-11-14T09:07:27.124Z,14.91
2022-11-14T09:12:30.457Z,13.47
2022-11-14T09:17:35.662Z,12.55
2022-11-14T09:22:38.974Z,12.59
2022-11-14T09:27:42.077Z,14.88
2022-11-14T09:32:45.182Z,14.88
2022-11-14T09:37:48.288Z,13.39
2022-11-14T09:43:30.072Z,12.56
2022-11-14T09:48:33.749Z,13.50
2022-11-14T09:54:23.336Z,14.99
2022-11-14T09:59:27.674Z,13.50
2022-11-14T10:04:55.743Z,12.65
2022-11-14T10:10:30.682Z,13.37
2022-11-14T10:15:48.201Z,15.84
2022-11-14T10:21:31.020Z,16.09
2022-11-14T10:26:47.623Z,14.29
2022-11-14T10:32:36.179Z,13.34
2022-11-14T10:38:06.209Z,12.85
2022-11-14T10:43:35.352Z,13.08
2022-11-14T10:48:49.691Z,15.00
2022-11-14T10:54:07.145Z,14.00
2022-11-14T10:59:10.370Z,13.09
2022-11-14T11:04:33.232Z,12.53
2022-11-14T11:10:16.925Z,12.64
2022-11-14T11:15:32.074Z,15.20
2022-11-14T11:20:41.922Z,15.78
2022-11-14T11:25:45.147Z,14.36
2022-11-14T11:30:57.045Z,13.48
2022-11-14T11:36:04.103Z,13.33
2022-11-14T11:41:33.255Z,15.61
2022-11-14T11:46:59.428Z,16.01
2022-11-14T11:52:32.420Z,14.24
2022-11-14T11:58:31.510Z,13.18
2022-11-14T12:03:35.113Z,12.48
2022-11-14T12:08:46.781Z,12.37
2022-11-14T12:13:56.222Z,14.89
2022-11-14T12:19:16.126Z,15.88
2022-11-14T12:24:51.789Z,14.28
2022-11-14T12:30:20.022Z,13.24
2022-11-14T12:35:33.586Z,13.33
2022-11-14T12:40:48.492Z,15.65
2022-11-14T12:45:51.526Z,15.88
2022-11-14T12:50:57.392Z,14.07
2022-11-14T12:56:31.541Z,12.96
2022-11-14T13:01:53.411Z,13.49
2022-11-14T13:07:32.958Z,15.64
2022-11-14T13:12:56.777Z,14.64
2022-11-14T13:18:44.908Z,13.17
2022-11-14T13:23:47.991Z,12.33
2022-11-14T13:28:53.726Z,11.92
2022-11-14T13:34:00.331Z,13.62
2022-11-14T13:39:07.576Z,15.86
2022-11-14T13:44:39.642Z,15.88
2022-11-14T13:50:04.255Z,13.82
2022-11-14T13:55:07.875Z,12.65
2022-11-14T14:00:20.936Z,12.85
2022-11-14T14:05:55.751Z,14.96
2022-11-14T14:11:25.920Z,14.16
2022-11-14T14:16:56.652Z,12.67
2022-11-14T14:22:41.719Z,11.87
2022-11-14T14:28:09.737Z,12.73
2022-11-14T14:33:15.440Z,15.30
2022-11-14T14:38:29.460Z,15.32
2022-11-14T14:43:35.412Z,13.19
2022-11-14T14:48:42.604Z,11.89
2022-11-14T14:53:54.132Z,11.11
2022-11-14T14:58:57.448Z,10.58
2022-11-14T15:04:09.119Z,11.30
2022-11-14T15:09:26.464Z,14.21
2022-11-14T15:14:35.800Z,14.50
2022-11-14T15:19:45.942Z,12.57
2022-11-14T15:25:11.047Z,11.43
2022-11-14T15:30:25.906Z,10.70
2022-11-14T15:35:38.564Z,12.22
2022-11-14T15:40:42.128Z,14.47
2022-11-14T15:45:45.274Z,14.22
2022-11-14T15:50:51.655Z,12.32
2022-11-14T15:55:54.865Z,11.16
2022-11-14T16:01:01.097Z,11.57
2022-11-14T16:06:04.793Z,14.13
2022-11-14T16:11:07.905Z,15.26
2022-11-14T16:16:11.085Z,14.73
2022-11-14T16:21:18.682Z,12.53
2022-11-14T16:26:21.902Z,11.32
2022-11-14T16:31:25.323Z,13.04
2022-11-14T16:36:28.743Z,14.52
2022-11-14T16:41:32.036Z,14.45
2022-11-14T16:46:35.242Z,12.54
2022-11-14T16:51:47.872Z,11.31
2022-11-14T16:56:52.415Z,10.49
2022-11-14T17:01:55.781Z,11.00
2022-11-14T17:06:59.281Z,13.39
2022-11-14T17:12:02.654Z,14.66
2022-11-14T17:17:06.697Z,14.37
2022-11-14T17:22:09.814Z,12.31
2022-11-14T17:27:13.311Z,11.05
2022-11-14T17:32:19.213Z,10.32
2022-11-14T17:37:22.392Z,10.81
2022-11-14T17:42:25.696Z,13.33
2022-11-14T17:47:28.821Z,14.67
2022-11-14T17:52:32.012Z,14.36
2022-11-14T17:57:35.245Z,12.37
2022-11-14T18:02:38.538Z,11.13
2022-11-14T18:07:42.063Z,11.41
2022-11-14T18:12:45.562Z,14.04
2022-11-14T18:17:48.785Z,15.40
2022-11-14T18:22:52.400Z,14.93
2022-11-14T18:27:55.714Z,12.61
2022-11-14T18:32:58.913Z,11.15
2022-11-14T18:38:02.758Z,12.79
2022-11-14T18:43:25.511Z,14.81
2022-11-14T18:48:29.012Z,14.41
2022-11-14T18:54:09.196Z,12.38
2022-11-14T18:59:37.496Z,10.87
2022-11-14T19:04:53.839Z,11.34
2022-11-14T19:15:05.867Z,14.21
2022-11-14T19:20:14.335Z,11.97
2022-11-14T19:25:17.817Z,10.48
2022-11-14T19:30:21.114Z,10.92
2022-11-14T19:35:24.427Z,13.75
2022-11-14T19:40:30.081Z,15.02
2022-11-14T19:45:36.582Z,13.78
2022-11-14T19:50:39.994Z,11.67
2022-11-14T19:55:43.096Z,10.44
2022-11-14T20:00:46.192Z,10.81
2022-11-14T20:05:49.302Z,13.44
2022-11-14T20:11:10.953Z,14.60
2022-11-14T20:16:18.770Z,14.04
2022-11-14T20:21:25.503Z,11.73
2022-11-14T20:26:29.378Z,10.37
2022-11-14T20:31:33.101Z,10.80
2022-11-14T20:37:08.883Z,13.52
2022-11-14T20:41:59.587Z,14.83
2022-11-14T20:47:07.140Z,14.35
2022-11-14T20:52:13.076Z,12.08
2022-11-14T20:57:16.886Z,10.69
2022-11-14T21:02:20.200Z,9.83
2022-11-14T21:07:23.549Z,10.44
2022-11-14T21:12:26.727Z,13.23
2022-11-14T21:17:31.799Z,14.55
2022-11-14T21:22:34.979Z,14.31
2022-11-14T21:27:38.341Z,12.14
2022-11-14T21:32:41.497Z,10.64
2022-11-14T21:37:44.628Z,9.73
2022-11-14T21:42:47.923Z,10.46
2022-11-14T21:47:51.228Z,13.28
2022-11-14T21:52:54.639Z,14.75
2022-11-14T21:57:57.643Z,14.30
2022-11-14T22:03:19.698Z,11.94
2022-11-14T22:08:23.124Z,10.37
2022-11-14T22:13:26.213Z,9.45
2022-11-14T22:18:29.426Z,10.10
2022-11-14T22:23:32.973Z,12.85
2022-11-14T22:28:36.880Z,14.46
2022-11-14T22:33:46.738Z,14.37
2022-11-14T22:38:53.555Z,12.11
2022-11-14T22:43:57.750Z,10.72
2022-11-14T22:49:04.033Z,9.88
2022-11-14T22:54:07.138Z,9.23
2022-11-14T22:59:10.346Z,10.00
2022-11-14T23:04:13.603Z,13.09
2022-11-14T23:09:17.069Z,14.51
2022-11-14T23:14:20.213Z,13.75
2022-11-14T23:19:23.695Z,11.66
2022-11-14T23:24:26.813Z,10.28
2022-11-14T23:29:30.020Z,9.37
2022-11-14T23:34:33.213Z,8.73
2022-11-14T23:39:36.321Z,9.59
2022-11-14T23:44:39.428Z,12.76
2022-11-14T23:49:42.544Z,14.25
2022-11-14T23:54:45.641Z,13.97
2022-11-14T23:59:48.744Z,11.75
